Time;durP1;ratioP1;P1;durP2;ratioP2;P2;SDS_P1;SDS_P2;PMS_P1;PMS_P2;Temp;Humidity;BMP_temperature;BMP_pressure;BME280_temperature;BME280_humidity;BME280_pressure;Samples;Min_cycle;Max_cycle;Signal;HPM_P1;HPM_P2
2022/10/05 00:00:57;;;;;;;11.05;7.40;;;15.70;99.90;;;;;;5038124;28;20049;-69
2022/10/05 00:03:32;;;;;;;8.65;7.45;;;15.70;99.90;;;;;;5035771;28;20085;-70
2022/10/05 00:05:59;;;;;;;10.77;7.05;;;15.70;99.90;;;;;;5035831;28;20069;-69
2022/10/05 00:08:30;;;;;;;10.80;8.05;;;15.70;99.90;;;;;;5047535;28;20084;-70
2022/10/05 00:10:56;;;;;;;10.55;7.85;;;15.70;99.90;;;;;;5034655;28;20041;-70
2022/10/05 00:13:28;;;;;;;9.70;7.03;;;15.70;99.90;;;;;;5030733;28;20071;-70
2022/10/05 00:16:17;;;;;;;10.35;7.65;;;15.70;99.90;;;;;;5045342;28;20084;-69
2022/10/05 00:18:47;;;;;;;12.25;6.85;;;15.70;99.90;;;;;;5041188;28;20057;-70
2022/10/05 00:21:17;;;;;;;11.25;7.38;;;15.70;99.90;;;;;;5045594;28;20046;-69
2022/10/05 00:23:43;;;;;;;10.00;6.95;;;15.70;99.90;;;;;;5045424;28;20088;-69
2022/10/05 00:26:19;;;;;;;11.48;7.10;;;15.70;99.90;;;;;;5045899;28;20349;-69
2022/10/05 00:28:45;;;;;;;13.05;7.78;;;15.70;99.90;;;;;;5046901;28;20196;-69
2022/10/05 00:31:23;;;;;;;8.20;6.40;;;15.70;99.90;;;;;;5045612;28;20053;-69
2022/10/05 00:33:50;;;;;;;11.60;6.90;;;15.70;99.90;;;;;;5046396;28;20045;-70
2022/10/05 00:36:16;;;;;;;10.27;6.72;;;15.60;99.90;;;;;;5046388;28;20084;-70
2022/10/05 00:38:42;;;;;;;10.50;6.93;;;15.70;99.90;;;;;;5046412;28;20037;-69
2022/10/05 00:41:16;;;;;;;7.78;5.78;;;15.70;99.90;;;;;;5046953;28;20037;-70
2022/10/05 00:44:07;;;;;;;10.10;6.63;;;15.70;99.90;;;;;;5046694;28;20049;-69
2022/10/05 00:46:35;;;;;;;9.63;6.57;;;15.70;99.90;;;;;;5045319;28;20045;-70
2022/10/05 00:49:39;;;;;;;8.40;5.50;;;15.70;99.90;;;;;;5050427;28;20041;-70
2022/10/05 00:52:20;;;;;;;12.13;6.32;;;15.70;99.90;;;;;;5045263;28;20561;-69
2022/10/05 00:55:11;;;;;;;8.18;5.60;;;15.60;99.90;;;;;;5045222;28;20101;-69
2022/10/05 00:58:01;;;;;;;7.30;5.53;;;15.70;99.90;;;;;;5007236;28;20391;-69
2022/10/05 01:00:27;;;;;;;;;;;15.60;99.90;;;;;;5045530;28;20064;-69
2022/10/05 01:02:53;;;;;;;11.32;5.55;;;15.60;99.90;;;;;;5044121;28;19921;-69
2022/10/05 01:05:43;;;;;;;11.57;5.78;;;15.70;99.90;;;;;;5045743;28;20060;-69
2022/10/05 01:08:11;;;;;;;7.00;5.57;;;15.70;99.90;;;;;;5044980;28;20337;-69
2022/10/05 01:10:44;;;;;;;9.30;5.85;;;15.60;99.90;;;;;;5044974;28;20502;-69
2022/10/05 01:13:21;;;;;;;8.25;5.65;;;15.60;99.90;;;;;;5045952;28;20400;-69
2022/10/05 01:16:08;;;;;;;8.68;6.32;;;15.60;99.90;;;;;;5044505;28;20064;-70
2022/10/05 01:19:07;;;;;;;9.32;5.78;;;15.60;99.90;;;;;;5038651;28;20109;-70
2022/10/05 01:22:00;;;;;;;10.93;6.47;;;15.60;99.90;;;;;;5025724;28;20654;-70
2022/10/05 01:25:25;;;;;;;11.07;5.63;;;15.70;99.90;;;;;;5045299;28;20049;-69
2022/10/05 01:28:21;;;;;;;7.38;5.90;;;15.60;99.90;;;;;;4988171;28;20050;-69
2022/10/05 01:31:25;;;;;;;7.82;5.82;;;15.60;99.90;;;;;;5003451;28;20046;-69
2022/10/05 01:34:04;;;;;;;9.20;6.88;;;15.60;99.90;;;;;;4997443;28;20145;-70
2022/10/05 01:36:42;;;;;;;10.60;6.47;;;15.60;99.90;;;;;;5005235;28;20074;-69
2022/10/05 01:39:23;;;;;;;8.80;6.47;;;15.60;99.90;;;;;;5003638;28;20035;-69
2022/10/05 01:41:57;;;;;;;9.45;6.47;;;15.60;99.90;;;;;;4987298;28;20054;-70
2022/10/05 01:45:11;;;;;;;13.82;7.07;;;15.60;99.90;;;;;;4987419;28;20050;-69
2022/10/05 01:47:52;;;;;;;9.65;6.43;;;15.60;99.90;;;;;;4926534;29;20115;-70
2022/10/05 01:50:55;;;;;;;11.80;7.57;;;15.60;99.90;;;;;;4925430;29;20085;-70
2022/10/05 01:53:55;;;;;;;10.05;7.35;;;15.50;99.90;;;;;;4931610;29;20048;-69
2022/10/05 01:56:38;;;;;;;11.68;7.78;;;15.50;99.90;;;;;;4926287;29;20052;-69
2022/10/05 01:59:50;;;;;;;12.63;7.50;;;15.60;99.90;;;;;;4926802;29;20060;-69
2022/10/05 02:02:19;;;;;;;13.48;7.55;;;15.50;99.90;;;;;;4932339;29;20201;-69
2022/10/05 02:05:08;;;;;;;14.02;7.55;;;15.50;99.90;;;;;;4964610;29;20059;-69
2022/10/05 02:07:42;;;;;;;12.57;7.95;;;15.50;99.90;;;;;;4945275;29;20059;-69
2022/10/05 02:10:18;;;;;;;11.57;8.23;;;15.40;99.90;;;;;;4959032;29;20059;-70
2022/10/05 02:12:46;;;;;;;10.98;8.02;;;15.40;99.90;;;;;;4956735;29;20079;-69
2022/10/05 02:15:21;;;;;;;13.13;8.32;;;15.40;99.90;;;;;;4964160;29;20094;-70
2022/10/05 02:17:53;;;;;;;11.30;8.35;;;15.50;99.90;;;;;;4945734;29;20066;-70
2022/10/05 02:20:29;;;;;;;11.50;8.10;;;15.40;99.90;;;;;;4961331;29;20110;-70
2022/10/05 02:23:02;;;;;;;12.45;8.95;;;15.40;99.90;;;;;;4935097;28;20053;-69
2022/10/05 02:25:42;;;;;;;13.90;8.43;;;15.30;99.90;;;;;;5045382;28;20107;-70
2022/10/05 02:28:17;;;;;;;14.75;9.27;;;15.40;99.90;;;;;;5044796;28;20042;-69
2022/10/05 02:30:50;;;;;;;11.88;7.65;;;15.30;99.90;;;;;;5043059;28;20084;-69
2022/10/05 02:33:31;;;;;;;12.48;8.90;;;15.30;99.90;;;;;;5045567;28;20553;-70
2022/10/05 02:36:27;;;;;;;11.48;7.85;;;15.30;99.90;;;;;;5044492;28;20060;-69
2022/10/05 02:39:14;;;;;;;10.18;7.88;;;15.30;99.90;;;;;;5043266;28;20053;-70
2022/10/05 02:41:54;;;;;;;11.70;8.40;;;15.30;99.90;;;;;;5043183;28;20049;-70
2022/10/05 02:44:37;;;;;;;10.45;8.13;;;15.20;99.90;;;;;;5043640;28;20060;-70
2022/10/05 02:47:26;;;;;;;11.30;7.75;;;15.20;99.90;;;;;;5043708;28;20060;-70
2022/10/05 02:50:00;;;;;;;10.30;7.72;;;15.20;99.90;;;;;;5042998;28;20120;-70
2022/10/05 02:52:40;;;;;;;10.45;7.82;;;15.30;99.90;;;;;;5048726;28;20090;-70
2022/10/05 02:55:18;;;;;;;10.30;7.55;;;15.20;99.90;;;;;;5043194;28;20051;-68
2022/10/05 02:58:10;;;;;;;10.20;7.43;;;15.20;99.90;;;;;;5043744;28;20084;-69
2022/10/05 03:00:47;;;;;;;8.93;7.28;;;15.20;99.90;;;;;;5042967;28;20052;-69
2022/10/05 03:03:33;;;;;;;11.38;7.60;;;15.30;99.90;;;;;;5044065;28;20049;-69
2022/10/05 03:06:06;;;;;;;9.23;6.78;;;15.30;99.90;;;;;;5043510;28;20069;-69
2022/10/05 03:08:32;;;;;;;9.80;7.93;;;15.20;99.90;;;;;;5044303;28;20053;-70
2022/10/05 03:11:09;;;;;;;12.18;7.32;;;15.20;99.90;;;;;;5043672;28;20064;-69
2022/10/05 03:13:38;;;;;;;12.05;8.02;;;15.30;99.90;;;;;;5043389;28;20060;-69
2022/10/05 03:16:06;;;;;;;12.50;7.25;;;15.30;99.90;;;;;;5043167;28;20057;-70
2022/10/05 03:18:55;;;;;;;8.95;6.88;;;15.20;99.90;;;;;;5026703;28;20058;-70
2022/10/05 03:21:35;;;;;;;10.20;7.18;;;15.20;99.90;;;;;;5042777;28;20056;-69
2022/10/05 03:24:19;;;;;;;10.68;6.78;;;15.30;99.90;;;;;;5044823;28;20084;-69
2022/10/05 03:27:16;;;;;;;10.85;7.53;;;15.20;99.90;;;;;;5043893;28;20057;-69
2022/10/05 03:30:01;;;;;;;8.63;6.72;;;15.20;99.90;;;;;;5044025;28;20053;-69
2022/10/05 03:32:42;;;;;;;8.88;7.13;;;15.20;99.90;;;;;;5032929;28;20472;-70
2022/10/05 03:35:21;;;;;;;9.15;6.90;;;15.20;99.90;;;;;;5044580;28;20378;-70
2022/10/05 03:38:10;;;;;;;11.15;7.88;;;15.20;99.90;;;;;;5048300;28;20041;-69
2022/10/05 03:40:54;;;;;;;8.65;6.45;;;15.20;99.90;;;;;;5048204;28;20037;-69
2022/10/05 03:43:49;;;;;;;7.68;6.80;;;15.20;99.90;;;;;;5047050;28;20103;-69
2022/10/05 03:46:48;;;;;;;9.68;6.63;;;15.20;99.90;;;;;;5046787;28;20057;-69
2022/10/05 03:49:46;;;;;;;8.20;6.63;;;15.20;99.90;;;;;;5030149;28;20038;-69
2022/10/05 03:52:23;;;;;;;10.07;6.65;;;15.10;99.90;;;;;;5053942;28;20095;-69
2022/10/05 03:54:56;;;;;;;13.20;6.80;;;15.20;99.90;;;;;;5047617;28;20045;-69
2022/10/05 03:57:30;;;;;;;9.13;6.53;;;15.20;99.90;;;;;;5046265;28;20087;-69
2022/10/05 04:00:10;;;;;;;10.38;7.40;;;15.10;99.90;;;;;;5046506;28;20381;-69
2022/10/05 04:03:03;;;;;;;11.30;7.18;;;15.10;99.90;;;;;;5046454;28;20084;-69
2022/10/05 04:05:52;;;;;;;10.93;7.90;;;15.10;99.90;;;;;;5028048;28;20057;-69
2022/10/05 04:08:25;;;;;;;10.68;7.35;;;15.10;99.90;;;;;;5048657;28;20041;-69
2022/10/05 04:10:55;;;;;;;11.98;7.85;;;15.00;99.90;;;;;;5046918;28;20053;-69
2022/10/05 04:13:41;;;;;;;12.57;7.25;;;15.00;99.90;;;;;;5046395;28;20045;-69
2022/10/05 04:16:10;;;;;;;14.75;8.20;;;15.10;99.90;;;;;;5045739;28;20514;-70
2022/10/05 04:19:23;;;;;;;11.55;7.78;;;15.00;99.90;;;;;;5039291;28;20072;-69
2022/10/05 04:21:57;;;;;;;9.57;7.25;;;15.00;99.90;;;;;;5008571;28;20897;-70
2022/10/05 04:24:50;;;;;;;12.00;7.88;;;15.00;99.90;;;;;;5005167;28;20050;-70
2022/10/05 04:27:23;;;;;;;11.65;8.18;;;15.00;99.90;;;;;;4982036;28;20104;-70
2022/10/05 04:30:04;;;;;;;11.45;8.38;;;14.90;99.90;;;;;;5008637;28;20053;-70
2022/10/05 04:32:41;;;;;;;12.02;8.13;;;15.00;99.90;;;;;;5008563;28;20135;-70
2022/10/05 04:35:26;;;;;;;11.32;8.45;;;14.90;99.90;;;;;;5005112;28;20054;-69
2022/10/05 04:38:10;;;;;;;16.75;8.85;;;14.90;99.90;;;;;;4990937;28;20085;-69
2022/10/05 04:40:54;;;;;;;13.30;8.82;;;14.90;99.90;;;;;;5006700;28;20081;-69
2022/10/05 04:43:52;;;;;;;12.25;9.38;;;14.90;99.90;;;;;;5007099;28;20050;-69
2022/10/05 04:46:30;;;;;;;10.32;8.07;;;14.90;99.90;;;;;;5007634;28;20061;-70
2022/10/05 04:49:12;;;;;;;13.82;9.45;;;15.00;99.90;;;;;;4993131;28;20050;-70
2022/10/05 04:52:02;;;;;;;14.25;8.80;;;14.90;99.90;;;;;;5012108;28;20060;-69
2022/10/05 04:55:15;;;;;;;11.18;8.73;;;14.90;99.90;;;;;;5005727;28;20069;-70
2022/10/05 04:58:07;;;;;;;13.18;8.38;;;14.80;99.90;;;;;;5025310;28;20081;-70
2022/10/05 05:00:48;;;;;;;14.02;9.93;;;14.90;99.90;;;;;;5046462;28;20591;-70
2022/10/05 05:03:47;;;;;;;11.85;9.20;;;14.90;99.90;;;;;;5045535;28;20041;-70
2022/10/05 05:06:50;;;;;;;12.63;9.03;;;15.00;99.90;;;;;;5044707;28;20050;-70
2022/10/05 05:09:45;;;;;;;12.60;9.43;;;14.90;99.90;;;;;;5045237;28;20072;-69
2022/10/05 05:12:11;;;;;;;11.68;9.50;;;14.90;99.90;;;;;;5044494;28;20061;-69
2022/10/05 05:14:58;;;;;;;11.82;9.00;;;14.90;99.90;;;;;;5045772;28;20080;-70
2022/10/05 05:17:33;;;;;;;12.15;9.50;;;14.90;99.90;;;;;;4991887;28;20075;-69
2022/10/05 05:20:47;;;;;;;13.52;9.25;;;14.80;99.90;;;;;;5033127;28;20132;-70
2022/10/05 05:23:34;;;;;;;12.50;9.98;;;14.80;99.90;;;;;;5019274;28;20528;-70
2022/10/05 05:26:15;;;;;;;14.57;9.90;;;14.80;99.90;;;;;;5042454;28;20042;-69
2022/10/05 05:29:04;;;;;;;12.43;9.63;;;14.80;99.90;;;;;;5043190;28;20053;-69
2022/10/05 05:31:48;;;;;;;14.98;10.32;;;14.80;99.90;;;;;;5045632;28;20053;-69
2022/10/05 05:34:57;;;;;;;14.48;10.73;;;14.70;99.90;;;;;;5044785;28;20053;-69
2022/10/05 05:38:01;;;;;;;14.90;10.07;;;14.80;99.90;;;;;;5025489;28;20049;-70
2022/10/05 05:40:39;;;;;;;13.77;9.82;;;14.70;99.90;;;;;;5025677;28;20045;-67
2022/10/05 05:43:27;;;;;;;14.35;10.75;;;14.60;99.90;;;;;;5043283;28;20068;-66
2022/10/05 05:46:04;;;;;;;14.07;10.85;;;14.60;99.90;;;;;;5045644;28;20045;-66
2022/10/05 05:48:32;;;;;;;15.15;11.30;;;14.60;99.90;;;;;;5041638;28;20075;-67
2022/10/05 05:51:02;;;;;;;15.65;10.95;;;14.60;99.90;;;;;;5032635;28;20050;-67
2022/10/05 05:54:07;;;;;;;14.55;10.50;;;14.60;99.90;;;;;;5027691;28;20046;-67
2022/10/05 05:56:38;;;;;;;15.52;10.38;;;14.60;99.90;;;;;;5041285;28;20073;-67
2022/10/05 05:59:30;;;;;;;15.88;10.93;;;14.60;99.90;;;;;;5040715;28;20490;-67
2022/10/05 06:02:09;;;;;;;17.00;11.52;;;14.50;99.90;;;;;;5044028;28;20057;-67
2022/10/05 06:04:44;;;;;;;17.52;11.82;;;14.50;99.90;;;;;;5039936;28;20069;-67
2022/10/05 06:07:19;;;;;;;15.20;11.73;;;14.60;99.90;;;;;;5036788;28;20061;-67
2022/10/05 06:09:52;;;;;;;14.57;10.98;;;14.60;99.90;;;;;;5041407;28;20039;-66
2022/10/05 06:12:24;;;;;;;14.75;11.43;;;14.60;99.90;;;;;;5044750;28;20056;-67
2022/10/05 06:15:12;;;;;;;13.57;10.80;;;14.60;99.90;;;;;;5044543;28;20089;-68
2022/10/05 06:17:53;;;;;;;16.33;11.23;;;14.60;99.90;;;;;;5040220;28;20080;-68
2022/10/05 06:20:35;;;;;;;14.35;11.35;;;14.60;99.90;;;;;;5036030;28;20048;-67
2022/10/05 06:23:11;;;;;;;14.68;11.07;;;14.60;99.90;;;;;;5031561;28;20529;-67
2022/10/05 06:26:11;;;;;;;13.90;11.43;;;14.70;99.90;;;;;;5043878;28;20045;-67
2022/10/05 06:28:37;;;;;;;13.02;10.95;;;14.70;99.90;;;;;;5041661;28;20089;-67
2022/10/05 06:31:09;;;;;;;14.80;11.73;;;14.70;99.90;;;;;;5042351;28;20072;-67
2022/10/05 06:33:37;;;;;;;16.10;11.95;;;14.70;99.90;;;;;;5043866;28;20056;-68
2022/10/05 06:36:25;;;;;;;13.43;11.15;;;14.70;99.90;;;;;;5043325;28;20045;-70
2022/10/05 06:39:01;;;;;;;15.43;12.25;;;14.70;99.90;;;;;;5033321;28;20046;-69
2022/10/05 06:41:39;;;;;;;16.60;11.93;;;14.70;99.90;;;;;;5010639;28;20060;-69
2022/10/05 06:44:32;;;;;;;17.38;11.80;;;14.60;99.90;;;;;;5036028;28;20140;-69
2022/10/05 06:47:22;;;;;;;12.77;10.70;;;14.70;99.90;;;;;;5026635;28;20061;-68
2022/10/05 06:50:11;;;;;;;14.10;11.07;;;14.70;99.90;;;;;;5056056;28;20037;-69
2022/10/05 06:52:39;;;;;;;15.15;10.80;;;14.80;99.90;;;;;;5032226;28;20068;-69
2022/10/05 06:55:37;;;;;;;15.70;11.27;;;14.80;99.90;;;;;;5039218;28;20076;-69
2022/10/05 06:58:33;;;;;;;13.27;11.10;;;14.90;99.90;;;;;;5016153;28;20115;-69
2022/10/05 07:01:29;;;;;;;12.75;10.65;;;14.90;99.90;;;;;;5032597;28;20140;-68
2022/10/05 07:04:22;;;;;;;13.85;10.10;;;14.90;99.90;;;;;;5035674;28;20038;-69
2022/10/05 07:06:53;;;;;;;12.90;10.20;;;14.90;99.90;;;;;;5029825;28;20068;-71
2022/10/05 07:09:40;;;;;;;14.45;10.70;;;14.90;99.90;;;;;;5017705;28;20054;-69
2022/10/05 07:12:48;;;;;;;13.35;10.63;;;14.90;99.90;;;;;;5028495;28;20060;-69
2022/10/05 07:15:40;;;;;;;12.95;10.55;;;14.90;99.90;;;;;;4992832;28;20201;-70
2022/10/05 07:18:23;;;;;;;12.65;11.20;;;14.90;99.90;;;;;;4968922;28;20078;-69
2022/10/05 07:20:55;;;;;;;12.65;10.75;;;14.90;99.90;;;;;;4951676;28;20081;-70
2022/10/05 07:23:36;;;;;;;12.23;10.85;;;14.90;99.90;;;;;;4979850;28;20124;-70
2022/10/05 07:26:05;;;;;;;12.63;10.55;;;14.90;99.90;;;;;;4968887;28;20058;-69
2022/10/05 07:28:30;;;;;;;12.38;10.95;;;15.00;99.90;;;;;;4978419;28;20046;-69
2022/10/05 07:31:12;;;;;;;13.98;10.57;;;15.00;99.90;;;;;;4952638;28;20046;-69
2022/10/05 07:34:04;;;;;;;12.27;9.98;;;15.00;99.90;;;;;;4978843;28;20039;-69
2022/10/05 07:40:29;;;;;;;12.55;9.90;;;15.00;99.90;;;;;;4979710;28;20057;-69
2022/10/05 07:42:55;;;;;;;12.63;10.27;;;15.10;99.90;;;;;;4934223;28;20046;-69
2022/10/05 07:45:21;;;;;;;10.73;9.40;;;15.10;99.90;;;;;;4979807;28;20077;-69
2022/10/05 07:47:55;;;;;;;10.25;8.65;;;15.10;99.90;;;;;;4968291;28;20051;-70
2022/10/05 07:51:00;;;;;;;11.98;8.90;;;15.20;99.90;;;;;;5020703;28;20539;-71
2022/10/05 07:53:47;;;;;;;10.82;9.23;;;15.20;99.90;;;;;;5005180;28;20075;-70
2022/10/05 07:56:28;;;;;;;10.88;9.02;;;15.20;99.90;;;;;;5007044;28;20084;-70
2022/10/05 07:59:10;;;;;;;12.00;9.57;;;15.30;99.90;;;;;;5045243;28;20414;-69
2022/10/05 08:01:40;;;;;;;13.25;9.32;;;15.30;99.90;;;;;;5024129;28;20103;-70
2022/10/05 08:04:21;;;;;;;12.60;9.80;;;15.30;99.90;;;;;;5025447;28;20052;-70
2022/10/05 08:06:58;;;;;;;12.23;9.32;;;15.40;99.90;;;;;;5034216;28;20049;-69
2022/10/05 08:09:53;;;;;;;10.80;9.65;;;15.30;99.90;;;;;;5035001;28;20537;-69
2022/10/05 08:12:30;;;;;;;10.57;9.13;;;15.30;99.90;;;;;;4994620;28;20081;-70
2022/10/05 08:15:14;;;;;;;10.82;9.50;;;15.40;99.90;;;;;;5034208;28;20065;-70
2022/10/05 08:17:54;;;;;;;11.30;9.40;;;15.40;99.90;;;;;;5027888;28;20525;-70
2022/10/05 08:20:30;;;;;;;11.43;9.27;;;15.40;99.90;;;;;;5020279;28;20136;-71
2022/10/05 08:23:35;;;;;;;12.70;9.55;;;15.50;99.90;;;;;;5011502;28;20062;-70
2022/10/05 08:26:34;;;;;;;13.52;9.57;;;15.50;99.90;;;;;;5033672;28;20566;-71
2022/10/05 08:29:16;;;;;;;10.57;9.05;;;15.60;99.90;;;;;;5041172;28;20151;-70
2022/10/05 08:31:47;;;;;;;10.55;9.13;;;15.60;99.90;;;;;;5017157;28;20056;-72
2022/10/05 08:34:22;;;;;;;9.45;8.55;;;15.70;99.90;;;;;;5025070;28;20083;-71
2022/10/05 08:36:52;;;;;;;9.95;8.15;;;15.70;99.90;;;;;;5007236;28;20133;-72
2022/10/05 08:39:20;;;;;;;9.18;7.82;;;15.70;99.90;;;;;;5019863;28;20045;-71
2022/10/05 08:41:55;;;;;;;9.95;8.73;;;15.80;99.90;;;;;;5011473;28;20056;-71
2022/10/05 08:45:03;;;;;;;11.00;8.10;;;15.80;99.90;;;;;;5022232;28;20049;-71
2022/10/05 08:47:35;;;;;;;10.88;8.00;;;15.80;99.90;;;;;;5016458;28;20053;-71
2022/10/05 08:50:23;;;;;;;11.48;9.05;;;15.90;99.90;;;;;;5030059;28;20276;-70
2022/10/05 08:52:49;;;;;;;11.82;8.13;;;15.90;99.90;;;;;;5016851;28;20057;-70
2022/10/05 08:55:35;;;;;;;12.02;8.82;;;15.90;99.90;;;;;;5032250;28;20107;-71
2022/10/05 08:58:16;;;;;;;9.45;7.90;;;15.90;99.90;;;;;;5031177;28;20045;-70
2022/10/05 09:01:02;;;;;;;13.30;7.65;;;16.00;99.90;;;;;;5039910;28;20497;-74
2022/10/05 09:03:56;;;;;;;9.00;7.25;;;16.00;99.90;;;;;;5037702;28;20057;-70
2022/10/05 09:06:25;;;;;;;10.52;8.02;;;16.10;99.90;;;;;;5026231;28;20053;-71
2022/10/05 09:09:15;;;;;;;10.13;7.88;;;16.20;99.90;;;;;;5034063;28;20105;-70
2022/10/05 09:12:15;;;;;;;8.50;7.07;;;16.20;99.90;;;;;;5039424;28;20044;-70
2022/10/05 09:14:57;;;;;;;9.13;8.15;;;16.20;99.90;;;;;;5035181;28;20030;-69
2022/10/05 09:17:47;;;;;;;7.88;6.88;;;16.20;99.90;;;;;;5026619;28;20108;-71
2022/10/05 09:20:21;;;;;;;8.80;7.35;;;16.30;99.90;;;;;;5033691;28;20136;-71
2022/10/05 09:23:33;;;;;;;8.35;6.63;;;16.30;99.90;;;;;;5021914;28;20057;-70
2022/10/05 09:26:08;;;;;;;7.00;6.28;;;16.30;99.90;;;;;;5011971;28;20259;-71
2022/10/05 09:29:25;;;;;;;8.38;6.25;;;16.40;99.90;;;;;;5033930;28;20052;-70
2022/10/05 09:32:12;;;;;;;7.50;6.32;;;16.40;99.90;;;;;;4974881;28;20475;-70
2022/10/05 09:35:03;;;;;;;6.88;6.18;;;16.40;99.90;;;;;;4975198;28;20069;-70
2022/10/05 09:37:37;;;;;;;9.82;6.50;;;16.50;99.90;;;;;;4966249;28;20250;-70
2022/10/05 09:40:15;;;;;;;6.95;5.95;;;16.50;99.90;;;;;;4991825;28;20105;-70
2022/10/05 09:42:56;;;;;;;6.25;5.47;;;16.50;99.90;;;;;;4969942;28;20093;-70
2022/10/05 09:45:34;;;;;;;8.73;5.53;;;16.50;99.90;;;;;;4984559;28;20073;-70
2022/10/05 09:48:11;;;;;;;7.35;5.38;;;16.50;99.90;;;;;;4971063;28;20539;-69
2022/10/05 09:50:37;;;;;;;6.18;5.55;;;16.50;99.90;;;;;;4978672;28;20042;-70
2022/10/05 09:53:39;;;;;;;6.03;5.43;;;16.50;99.90;;;;;;4954093;28;20177;-72
2022/10/05 09:56:33;;;;;;;6.30;4.85;;;16.50;99.90;;;;;;4965371;28;20509;-68
2022/10/05 09:59:17;;;;;;;9.15;5.65;;;16.50;99.90;;;;;;4996303;28;20055;-69
2022/10/05 10:01:59;;;;;;;6.05;5.43;;;16.50;99.90;;;;;;4971813;28;20050;-68
2022/10/05 10:04:33;;;;;;;7.80;5.80;;;16.50;99.90;;;;;;4979098;28;20634;-68
2022/10/05 10:07:49;;;;;;;7.80;5.95;;;16.60;99.90;;;;;;4984944;28;20050;-69
2022/10/05 10:10:14;;;;;;;6.72;6.05;;;16.50;99.90;;;;;;5028753;28;20041;-69
2022/10/05 10:13:22;;;;;;;7.03;5.60;;;16.50;99.90;;;;;;4999583;28;20057;-69
2022/10/05 10:16:25;;;;;;;7.30;6.53;;;16.40;99.90;;;;;;5045587;28;20145;-69
2022/10/05 10:19:16;;;;;;;8.10;6.00;;;16.40;99.90;;;;;;5003417;28;20041;-69
2022/10/05 10:22:12;;;;;;;7.95;6.40;;;16.40;99.90;;;;;;5009217;28;20533;-69
2022/10/05 10:24:50;;;;;;;10.73;6.47;;;16.40;99.90;;;;;;5022089;28;20061;-69
2022/10/05 10:27:53;;;;;;;7.45;6.03;;;16.50;99.90;;;;;;5010752;28;20359;-69
2022/10/05 10:30:36;;;;;;;7.70;6.43;;;16.50;99.90;;;;;;5025695;28;20121;-70
2022/10/05 10:33:12;;;;;;;9.43;6.60;;;16.50;99.90;;;;;;5017270;28;20529;-69
2022/10/05 10:35:53;;;;;;;10.57;6.45;;;16.40;99.90;;;;;;5008113;28;20054;-69
2022/10/05 10:39:00;;;;;;;8.65;6.07;;;16.50;99.90;;;;;;5012624;28;20141;-69
2022/10/05 10:41:57;;;;;;;8.10;5.80;;;16.40;99.90;;;;;;4968001;28;20058;-69
2022/10/05 10:44:41;;;;;;;7.45;6.07;;;16.50;99.90;;;;;;4979346;28;20042;-70
2022/10/05 10:47:18;;;;;;;6.78;6.00;;;16.50;99.90;;;;;;4970510;28;20062;-70
2022/10/05 10:50:03;;;;;;;8.65;6.05;;;16.60;99.90;;;;;;4982374;28;20073;-69
2022/10/05 10:52:47;;;;;;;9.35;6.20;;;16.50;99.90;;;;;;4967465;28;20053;-69
2022/10/05 10:55:15;;;;;;;6.75;6.05;;;16.60;99.90;;;;;;4979719;28;20092;-68
2022/10/05 10:58:03;;;;;;;7.97;6.35;;;16.60;99.90;;;;;;4970450;28;20129;-68
2022/10/05 11:01:19;;;;;;;7.82;6.57;;;16.50;99.90;;;;;;4982595;28;20069;-68
2022/10/05 11:04:08;;;;;;;5.95;5.43;;;16.60;99.90;;;;;;4887610;29;20067;-68
2022/10/05 11:06:34;;;;;;;9.07;5.45;;;16.60;99.90;;;;;;4886549;29;20056;-69
2022/10/05 11:09:23;;;;;;;7.65;5.80;;;16.70;99.90;;;;;;4886214;29;20059;-69
2022/10/05 11:12:20;;;;;;;8.02;5.75;;;16.70;99.90;;;;;;4906509;29;20369;-68
2022/10/05 11:15:06;;;;;;;6.85;5.63;;;16.70;99.90;;;;;;4902052;29;20058;-68
2022/10/05 11:17:57;;;;;;;6.85;5.10;;;16.70;99.90;;;;;;4904690;29;20054;-68
2022/10/05 11:20:31;;;;;;;9.65;5.18;;;16.80;99.90;;;;;;4923676;29;20428;-68
2022/10/05 11:23:33;;;;;;;9.75;5.47;;;16.70;99.90;;;;;;4930288;28;20047;-68
2022/10/05 11:26:23;;;;;;;5.63;4.75;;;16.80;99.90;;;;;;4977021;28;20300;-68
2022/10/05 11:28:55;;;;;;;11.80;5.60;;;16.80;99.90;;;;;;4930040;28;20054;-69
2022/10/05 11:31:34;;;;;;;6.25;4.75;;;16.90;99.90;;;;;;4948531;28;20342;-69
2022/10/05 11:34:21;;;;;;;7.05;4.60;;;16.90;99.90;;;;;;4969026;28;20053;-70
2022/10/05 11:36:57;;;;;;;6.03;4.20;;;17.00;99.90;;;;;;4949344;28;20050;-69
2022/10/05 11:39:39;;;;;;;5.68;3.88;;;17.10;99.90;;;;;;4999295;28;20077;-69
2022/10/05 11:42:24;;;;;;;6.18;4.38;;;17.00;99.90;;;;;;5028461;28;20049;-70
2022/10/05 11:45:22;;;;;;;6.18;3.90;;;17.10;99.90;;;;;;5021945;28;20352;-69
2022/10/05 11:48:06;;;;;;;5.32;3.97;;;17.10;99.90;;;;;;5023200;28;20053;-71
2022/10/05 11:50:53;;;;;;;6.47;3.92;;;17.10;99.90;;;;;;5018220;28;20465;-71
2022/10/05 11:53:32;;;;;;;5.25;4.15;;;17.10;99.90;;;;;;5041229;28;20080;-70
2022/10/05 11:56:30;;;;;;;7.72;4.20;;;17.00;99.90;;;;;;5019401;28;20042;-67
2022/10/05 11:59:07;;;;;;;7.35;4.20;;;16.90;99.90;;;;;;5028006;28;20054;-70
2022/10/05 12:01:49;;;;;;;7.30;4.32;;;16.90;99.90;;;;;;5024217;28;20050;-71
2022/10/05 12:04:36;;;;;;;6.72;3.80;;;16.90;99.90;;;;;;5034004;28;20806;-71
2022/10/05 12:07:10;;;;;;;5.55;4.38;;;17.00;99.90;;;;;;5019665;28;20083;-71
2022/10/05 12:10:15;;;;;;;8.65;4.65;;;17.10;99.90;;;;;;5028913;28;20079;-71
2022/10/05 12:12:44;;;;;;;6.20;4.50;;;17.00;99.90;;;;;;5022193;28;20315;-71
2022/10/05 12:15:22;;;;;;;5.90;4.45;;;17.00;99.90;;;;;;5022604;28;20046;-71
2022/10/05 12:18:07;;;;;;;7.03;4.43;;;16.90;99.90;;;;;;5042975;28;20064;-67
2022/10/05 12:20:55;;;;;;;5.32;4.47;;;17.00;99.90;;;;;;5011874;28;20073;-67
2022/10/05 12:23:46;;;;;;;6.10;4.20;;;17.00;99.90;;;;;;5026014;28;20053;-70
2022/10/05 12:26:43;;;;;;;8.05;4.53;;;17.10;99.90;;;;;;5051303;28;20056;-70
2022/10/05 12:29:44;;;;;;;6.70;4.22;;;17.00;99.90;;;;;;5020234;28;20052;-71
2022/10/05 12:32:17;;;;;;;6.95;4.95;;;17.00;99.90;;;;;;5016474;28;20116;-70
2022/10/05 12:34:47;;;;;;;6.72;4.32;;;17.00;99.90;;;;;;5040561;28;20084;-70
2022/10/05 12:37:31;;;;;;;5.82;4.80;;;17.00;99.90;;;;;;5036324;28;20056;-70
2022/10/05 12:40:05;;;;;;;5.15;4.10;;;17.00;99.90;;;;;;5031525;28;20049;-70
2022/10/05 12:42:54;;;;;;;6.82;4.18;;;17.10;99.90;;;;;;5028557;28;20056;-70
2022/10/05 12:45:48;;;;;;;5.95;4.53;;;17.00;99.90;;;;;;5024077;28;20061;-71
2022/10/05 12:48:51;;;;;;;5.40;4.50;;;17.00;99.90;;;;;;5017446;28;20058;-71
2022/10/05 12:51:25;;;;;;;6.03;4.70;;;17.00;99.90;;;;;;5034026;28;20088;-71
2022/10/05 12:54:12;;;;;;;5.90;4.38;;;17.00;99.90;;;;;;5038560;28;20077;-70
2022/10/05 12:56:46;;;;;;;7.28;4.30;;;17.10;99.90;;;;;;5029290;28;20807;-71
2022/10/05 12:59:36;;;;;;;8.73;4.55;;;17.10;99.90;;;;;;5044452;28;20073;-72
2022/10/05 13:02:29;;;;;;;4.45;3.80;;;17.10;99.90;;;;;;5027309;28;20465;-72
2022/10/05 13:04:58;;;;;;;7.03;4.38;;;17.20;99.90;;;;;;5018483;28;20517;-70
2022/10/05 13:07:48;;;;;;;6.47;4.32;;;17.20;99.90;;;;;;5023782;28;20088;-69
2022/10/05 13:10:29;;;;;;;5.75;4.63;;;17.20;99.90;;;;;;5025296;28;20041;-71
2022/10/05 13:13:40;;;;;;;6.80;4.03;;;17.20;99.90;;;;;;5019820;28;20053;-71
2022/10/05 13:16:15;;;;;;;4.35;3.67;;;17.20;99.90;;;;;;5030154;28;20045;-71
2022/10/05 13:19:01;;;;;;;7.00;4.75;;;17.30;99.90;;;;;;5019628;28;20041;-71
2022/10/05 13:21:47;;;;;;;4.82;4.07;;;17.30;99.90;;;;;;5010575;28;20057;-71
2022/10/05 13:24:19;;;;;;;8.52;4.38;;;17.40;99.90;;;;;;5020989;28;20046;-71
2022/10/05 13:27:13;;;;;;;5.82;4.20;;;17.40;99.90;;;;;;5021073;28;20597;-71
2022/10/05 13:29:44;;;;;;;9.65;4.32;;;17.50;99.90;;;;;;5017701;28;20145;-71
2022/10/05 13:32:42;;;;;;;5.40;3.25;;;17.50;99.90;;;;;;5021358;28;20057;-70
2022/10/05 13:35:23;;;;;;;6.15;3.55;;;17.50;99.90;;;;;;5024507;28;20088;-70
2022/10/05 13:38:05;;;;;;;4.78;3.40;;;17.60;99.90;;;;;;5017946;28;20061;-71
2022/10/05 13:40:38;;;;;;;6.18;3.45;;;17.60;99.90;;;;;;5028335;28;20042;-72
2022/10/05 13:43:48;;;;;;;5.93;3.55;;;17.70;99.90;;;;;;5027427;28;20053;-71
2022/10/05 13:46:23;;;;;;;6.43;3.38;;;17.80;99.90;;;;;;5016720;28;20514;-67
2022/10/05 13:49:07;;;;;;;6.20;4.07;;;17.80;99.90;;;;;;5021694;28;20623;-70
2022/10/05 13:51:53;;;;;;;5.28;3.63;;;17.90;99.90;;;;;;5015038;28;20051;-70
2022/10/05 13:54:45;;;;;;;4.97;3.30;;;18.00;99.90;;;;;;5033044;28;20049;-71
2022/10/05 13:57:20;;;;;;;6.82;3.33;;;18.00;99.90;;;;;;5031897;28;20048;-71
2022/10/05 14:00:18;;;;;;;4.18;3.13;;;18.00;99.90;;;;;;5039266;28;20053;-70
2022/10/05 14:02:49;;;;;;;5.57;4.00;;;18.10;99.90;;;;;;5007386;28;20057;-71
2022/10/05 14:05:28;;;;;;;4.97;3.28;;;18.10;99.90;;;;;;5037323;28;20052;-70
2022/10/05 14:08:15;;;;;;;5.72;3.05;;;18.10;99.90;;;;;;5031308;28;20053;-70